Shohomaru — JD2043 — position and weather

sailwx.info

Track history (hours):
 
Tides and Currents Weather Stations Pressure Air Temp Water Temp Dewpoint Dewpoint Depression Visibility Wind Speed Wind Dir Waves Ship Positions

Shohomaru

Last reported at 2018-Jul-22 23:49 UTC. Time now 2018-Jul-23 00:23 UTC.
Position N 35°36' E 140°06'.

Length 68 m; draft 4.3 m.

Type: Tanker. MMSI: 431401999.

Date/timePositionNaut miles runAvg speedWind from/ knotsBaromVisibWave heightAir tempDewpointWater temp
2018-Jul-22 23:49N 35°36' E 140°06'5 8.7
2018-Jul-22 23:13N 35°35' E 140°00'0 0.0
2018-Jul-22 19:42N 35°35' E 140°00'0 0.1
2018-Jul-22 19:21N 35°35' E 140°00'0 0.0
2018-Jul-22 18:57N 35°35' E 140°00'6 0.9
2018-Jul-22 11:47N 35°32' E 139°54'413.1
2018-Jul-22 11:30N 35°31' E 139°49'3 5.9
2018-Jul-22 10:58N 35°32' E 139°46'0 0.0
2018-Jul-22 10:23N 35°32' E 139°46'0 0.0
2018-Jul-22 09:57N 35°32' E 139°46'0 0.0
2018-Jul-22 09:30N 35°32' E 139°46'0 0.0
2018-Jul-22 08:59N 35°32' E 139°46'0 0.0
2018-Jul-22 08:29N 35°32' E 139°46'0 0.0
2018-Jul-22 08:00N 35°32' E 139°46'0 0.0
2018-Jul-22 07:30N 35°32' E 139°46'3 6.5
2018-Jul-22 07:00N 35°30' E 139°49'613.0
2018-Jul-22 06:30N 35°30' E 139°57'4 0.8
2018-Jul-22 01:36N 35°30' E 140°02'1 8.7
2018-Jul-22 01:30N 35°30' E 140°01'2 3.2
2018-Jul-22 01:00N 35°31' E 139°60'1 1.1
2018-Jul-22 00:29N 35°32' E 139°59'0 0.0
2018-Jul-21 23:56N 35°32' E 139°59'0 0.0
2018-Jul-21 23:29N 35°32' E 139°59'0 0.0
2018-Jul-21 22:56N 35°32' E 139°59'0 0.0
2018-Jul-21 21:50N 35°32' E 139°59'0 0.0
2018-Jul-21 18:29N 35°32' E 139°59'0 0.0
2018-Jul-21 17:59N 35°32' E 139°59'0 0.0
2018-Jul-21 17:23N 35°32' E 139°59'0 0.0
2018-Jul-21 16:41N 35°32' E 139°59'0 0.0
2018-Jul-21 16:29N 35°32' E 139°59'0 0.0
2018-Jul-21 15:59N 35°32' E 139°59'0 0.0
2018-Jul-21 15:29N 35°32' E 139°59'0 0.0
2018-Jul-21 14:59N 35°32' E 139°59'0 0.0
2018-Jul-21 14:29N 35°32' E 139°59'0 0.0
2018-Jul-21 13:28N 35°32' E 139°59'0 0.0
2018-Jul-21 12:58N 35°32' E 139°59'0 0.0
2018-Jul-21 12:19N 35°32' E 139°59'0 0.0
2018-Jul-21 11:55N 35°32' E 139°59'0 0.0
2018-Jul-21 11:28N 35°32' E 139°59'0 0.0
2018-Jul-21 10:46N 35°32' E 139°59'0 0.0
2018-Jul-21 10:04N 35°32' E 139°59'0 0.0
2018-Jul-21 09:58N 35°32' E 139°59'0 0.0
2018-Jul-21 09:22N 35°32' E 139°59'0 0.0
2018-Jul-21 08:43N 35°32' E 139°59'0 0.0
2018-Jul-21 07:40N 35°32' E 139°59'0 0.0
2018-Jul-21 07:30N 35°32' E 139°59'510.8
2018-Jul-21 07:01N 35°29' E 139°53'713.6
2018-Jul-21 06:30N 35°26' E 139°46'510.8
2018-Jul-21 06:01N 35°24' E 139°40'0 0.5
2018-Jul-21 05:30N 35°24' E 139°40'0 0.0
2018-Jul-21 05:01N 35°24' E 139°40'0 0.0
2018-Jul-21 04:31N 35°24' E 139°40'0 0.0
2018-Jul-21 04:01N 35°24' E 139°40'0 0.0
2018-Jul-21 03:31N 35°24' E 139°40'0 0.0
2018-Jul-21 03:01N 35°24' E 139°40'1 2.2
2018-Jul-21 02:30N 35°23' E 139°40'1 2.2
2018-Jul-21 01:58N 35°22' E 139°40'0 0.0
2018-Jul-21 01:28N 35°22' E 139°40'0 0.0
2018-Jul-21 00:58N 35°22' E 139°40'0 0.0
2018-Jul-21 00:28N 35°22' E 139°40'0 0.0
2018-Jul-20 23:58N 35°22' E 139°40'0 0.0
2018-Jul-20 23:28N 35°22' E 139°40'0 0.0
2018-Jul-20 22:58N 35°22' E 139°40'0 0.0
2018-Jul-20 22:28N 35°22' E 139°40'0 0.0
2018-Jul-20 21:58N 35°22' E 139°40'0 0.0
2018-Jul-20 21:22N 35°22' E 139°40'0 0.1
2018-Jul-20 20:58N 35°22' E 139°40'0 0.1
2018-Jul-20 20:25N 35°22' E 139°40'0 0.0
2018-Jul-20 19:58N 35°22' E 139°40'0 0.0
2018-Jul-20 19:28N 35°22' E 139°40'0 0.0
2018-Jul-20 18:58N 35°22' E 139°40'0 0.1
2018-Jul-20 18:29N 35°22' E 139°40'3 6.8
2018-Jul-20 18:00N 35°20' E 139°43'611.7
2018-Jul-20 17:30N 35°15' E 139°47'611.9
2018-Jul-20 17:00N 35°09' E 139°46'612.5
2018-Jul-20 16:30N 35°04' E 139°42'712.7
2018-Jul-20 15:59N 34°59' E 139°36'713.1
2018-Jul-20 15:28N 34°55' E 139°29'23011.1
2018-Jul-19 18:44N 33°53' E 135°01'512.9
2018-Jul-19 18:18N 33°57' E 134°57'613.0
2018-Jul-19 17:52N 34°01' E 134°53'513.3
2018-Jul-19 17:30N 34°05' E 134°49'1112.7
2018-Jul-19 16:40N 34°13' E 134°40'811.3
2018-Jul-19 16:00N 34°17' E 134°33'510.5
2018-Jul-19 15:30N 34°19' E 134°27'510.7
2018-Jul-19 15:00N 34°21' E 134°21'510.6
2018-Jul-19 14:30N 34°23' E 134°15'  
2018-Jul-17 09:32N 34°23' E 134°19'412.5
2018-Jul-17 09:12N 34°21' E 134°24'212.4
2018-Jul-17 09:01N 34°20' E 134°27'713.1
2018-Jul-17 08:30N 34°17' E 134°34'510.9
2018-Jul-17 08:00N 34°14' E 134°39'7 9.2
2018-Jul-17 07:14N 34°10' E 134°46'2 8.9
2018-Jul-17 07:00N 34°09' E 134°48'4 8.7
2018-Jul-17 06:31N 34°08' E 134°53'5 9.1
2018-Jul-17 06:01N 34°10' E 134°58'4 8.0
2018-Jul-17 05:31N 34°10' E 135°03'4 8.2
2018-Jul-17 05:01N 34°09' E 135°08'3 6.7
2018-Jul-17 04:30N 34°09' E 135°12'0 0.0
2018-Jul-17 04:01N 34°09' E 135°12'0 0.0
2018-Jul-17 03:29N 34°09' E 135°12'0 0.0
2018-Jul-17 03:00N 34°09' E 135°12'0 0.0
2018-Jul-17 02:30N 34°09' E 135°12'0 0.4
2018-Jul-17 02:00N 34°09' E 135°12'2 3.3
2018-Jul-17 01:30N 34°09' E 135°10'0 0.1
2018-Jul-17 01:00N 34°09' E 135°10'0 0.0
2018-Jul-17 00:30N 34°09' E 135°10'0 0.0
2018-Jul-16 23:30N 34°09' E 135°10'0 0.0
2018-Jul-16 23:00N 34°09' E 135°10'0 0.0
2018-Jul-16 22:30N 34°09' E 135°10'0 0.0
2018-Jul-16 22:00N 34°09' E 135°10'0 0.0
2018-Jul-16 21:21N 34°09' E 135°10'0 0.0
2018-Jul-16 21:00N 34°09' E 135°10'5 9.6
2018-Jul-16 20:30N 34°07' E 135°04'612.7
2018-Jul-16 20:00N 34°01' E 135°02'712.1
2018-Jul-16 19:25N 33°54' E 135°02'512.0
2018-Jul-16 19:00N 33°50' E 135°05'5 0.1
2018-Jul-15 04:02N 33°53' E 135°01'012.8
2018-Jul-15 04:00N 33°54' E 135°01'713.3
2018-Jul-15 03:30N 34°00' E 135°01'612.6
2018-Jul-15 03:00N 34°06' E 135°03'611.6
2018-Jul-15 02:30N 34°09' E 135°09'2 4.5
2018-Jul-15 02:00N 34°09' E 135°12'0 0.0
2018-Jul-15 01:30N 34°09' E 135°12'0 0.0
2018-Jul-15 01:00N 34°09' E 135°12'0 0.0
2018-Jul-15 00:30N 34°09' E 135°12'0 0.0
2018-Jul-15 00:00N 34°09' E 135°12'2 3.9
2018-Jul-14 23:30N 34°09' E 135°10'0 0.1
2018-Jul-14 22:57N 34°09' E 135°10'0 0.0
2018-Jul-14 22:30N 34°09' E 135°10'0 0.0
2018-Jul-14 22:00N 34°09' E 135°10'0 0.1
2018-Jul-14 21:30N 34°09' E 135°10'0 0.0
2018-Jul-14 21:00N 34°09' E 135°10'0 0.0
2018-Jul-14 20:30N 34°09' E 135°10'0 0.0
2018-Jul-14 20:00N 34°09' E 135°10'0 0.0
2018-Jul-14 19:30N 34°09' E 135°10'0 0.0
2018-Jul-14 19:00N 34°09' E 135°10'0 0.0
2018-Jul-14 18:30N 34°09' E 135°10'0 0.0
2018-Jul-14 18:00N 34°09' E 135°10'0 0.0
2018-Jul-14 17:30N 34°09' E 135°10'4 8.2
2018-Jul-14 17:00N 34°09' E 135°05'611.9
2018-Jul-14 16:30N 34°03' E 135°03'612.7
2018-Jul-14 16:00N 33°57' E 135°02'611.9
2018-Jul-14 15:29N 33°51' E 135°03'2 0.1
2018-Jul-13 04:12N 33°52' E 135°02'413.7
2018-Jul-13 03:55N 33°56' E 135°02'613.3
2018-Jul-13 03:30N 34°02' E 135°02'612.5
2018-Jul-13 03:00N 34°08' E 135°05'612.3
2018-Jul-13 02:30N 34°09' E 135°12'0 0.4
2018-Jul-13 02:00N 34°09' E 135°12'0 0.0
2018-Jul-13 01:31N 34°09' E 135°12'0 0.0
2018-Jul-13 01:00N 34°09' E 135°12'0 0.0
2018-Jul-13 00:30N 34°09' E 135°12'0 0.1
2018-Jul-13 00:00N 34°09' E 135°12'  
Track history (hours):
 
Tides and Currents Weather Stations Pressure Air Temp Water Temp Dewpoint Dewpoint Depression Visibility Wind Speed Wind Dir Waves Ship Positions

Shohomaru

Last reported at 2018-Jul-22 23:49 UTC. Time now 2018-Jul-23 00:23 UTC.
Position N 35°36' E 140°06'.

Length 68 m; draft 4.3 m.

Type: Tanker. MMSI: 431401999.

Date/timePositionNaut miles runAvg speedWind from/ knotsBaromVisibWave heightAir tempDewpointWater temp
2018-Jul-22 23:49N 35°36' E 140°06'5 8.7
2018-Jul-22 23:13N 35°35' E 140°00'0 0.0
2018-Jul-22 19:42N 35°35' E 140°00'0 0.1
2018-Jul-22 19:21N 35°35' E 140°00'0 0.0
2018-Jul-22 18:57N 35°35' E 140°00'6 0.9
2018-Jul-22 11:47N 35°32' E 139°54'413.1
2018-Jul-22 11:30N 35°31' E 139°49'3 5.9
2018-Jul-22 10:58N 35°32' E 139°46'0 0.0
2018-Jul-22 10:23N 35°32' E 139°46'0 0.0
2018-Jul-22 09:57N 35°32' E 139°46'0 0.0
2018-Jul-22 09:30N 35°32' E 139°46'0 0.0
2018-Jul-22 08:59N 35°32' E 139°46'0 0.0
2018-Jul-22 08:29N 35°32' E 139°46'0 0.0
2018-Jul-22 08:00N 35°32' E 139°46'0 0.0
2018-Jul-22 07:30N 35°32' E 139°46'3 6.5
2018-Jul-22 07:00N 35°30' E 139°49'613.0
2018-Jul-22 06:30N 35°30' E 139°57'4 0.8
2018-Jul-22 01:36N 35°30' E 140°02'1 8.7
2018-Jul-22 01:30N 35°30' E 140°01'2 3.2
2018-Jul-22 01:00N 35°31' E 139°60'1 1.1
2018-Jul-22 00:29N 35°32' E 139°59'0 0.0
2018-Jul-21 23:56N 35°32' E 139°59'0 0.0
2018-Jul-21 23:29N 35°32' E 139°59'0 0.0
2018-Jul-21 22:56N 35°32' E 139°59'0 0.0
2018-Jul-21 21:50N 35°32' E 139°59'0 0.0
2018-Jul-21 18:29N 35°32' E 139°59'0 0.0
2018-Jul-21 17:59N 35°32' E 139°59'0 0.0
2018-Jul-21 17:23N 35°32' E 139°59'0 0.0
2018-Jul-21 16:41N 35°32' E 139°59'0 0.0
2018-Jul-21 16:29N 35°32' E 139°59'0 0.0
2018-Jul-21 15:59N 35°32' E 139°59'0 0.0
2018-Jul-21 15:29N 35°32' E 139°59'0 0.0
2018-Jul-21 14:59N 35°32' E 139°59'0 0.0
2018-Jul-21 14:29N 35°32' E 139°59'0 0.0
2018-Jul-21 13:28N 35°32' E 139°59'0 0.0
2018-Jul-21 12:58N 35°32' E 139°59'0 0.0
2018-Jul-21 12:19N 35°32' E 139°59'0 0.0
2018-Jul-21 11:55N 35°32' E 139°59'0 0.0
2018-Jul-21 11:28N 35°32' E 139°59'0 0.0
2018-Jul-21 10:46N 35°32' E 139°59'0 0.0
2018-Jul-21 10:04N 35°32' E 139°59'0 0.0
2018-Jul-21 09:58N 35°32' E 139°59'0 0.0
2018-Jul-21 09:22N 35°32' E 139°59'0 0.0
2018-Jul-21 08:43N 35°32' E 139°59'0 0.0
2018-Jul-21 07:40N 35°32' E 139°59'0 0.0
2018-Jul-21 07:30N 35°32' E 139°59'510.8
2018-Jul-21 07:01N 35°29' E 139°53'713.6
2018-Jul-21 06:30N 35°26' E 139°46'510.8
2018-Jul-21 06:01N 35°24' E 139°40'0 0.5
2018-Jul-21 05:30N 35°24' E 139°40'0 0.0
2018-Jul-21 05:01N 35°24' E 139°40'0 0.0
2018-Jul-21 04:31N 35°24' E 139°40'0 0.0
2018-Jul-21 04:01N 35°24' E 139°40'0 0.0
2018-Jul-21 03:31N 35°24' E 139°40'0 0.0
2018-Jul-21 03:01N 35°24' E 139°40'1 2.2
2018-Jul-21 02:30N 35°23' E 139°40'1 2.2
2018-Jul-21 01:58N 35°22' E 139°40'0 0.0
2018-Jul-21 01:28N 35°22' E 139°40'0 0.0
2018-Jul-21 00:58N 35°22' E 139°40'0 0.0
2018-Jul-21 00:28N 35°22' E 139°40'0 0.0
2018-Jul-20 23:58N 35°22' E 139°40'0 0.0
2018-Jul-20 23:28N 35°22' E 139°40'0 0.0
2018-Jul-20 22:58N 35°22' E 139°40'0 0.0
2018-Jul-20 22:28N 35°22' E 139°40'0 0.0
2018-Jul-20 21:58N 35°22' E 139°40'0 0.0
2018-Jul-20 21:22N 35°22' E 139°40'0 0.1
2018-Jul-20 20:58N 35°22' E 139°40'0 0.1
2018-Jul-20 20:25N 35°22' E 139°40'0 0.0
2018-Jul-20 19:58N 35°22' E 139°40'0 0.0
2018-Jul-20 19:28N 35°22' E 139°40'0 0.0
2018-Jul-20 18:58N 35°22' E 139°40'0 0.1
2018-Jul-20 18:29N 35°22' E 139°40'3 6.8
2018-Jul-20 18:00N 35°20' E 139°43'611.7
2018-Jul-20 17:30N 35°15' E 139°47'611.9
2018-Jul-20 17:00N 35°09' E 139°46'612.5
2018-Jul-20 16:30N 35°04' E 139°42'712.7
2018-Jul-20 15:59N 34°59' E 139°36'713.1
2018-Jul-20 15:28N 34°55' E 139°29'23011.1
2018-Jul-19 18:44N 33°53' E 135°01'512.9
2018-Jul-19 18:18N 33°57' E 134°57'613.0
2018-Jul-19 17:52N 34°01' E 134°53'513.3
2018-Jul-19 17:30N 34°05' E 134°49'1112.7
2018-Jul-19 16:40N 34°13' E 134°40'811.3
2018-Jul-19 16:00N 34°17' E 134°33'510.5
2018-Jul-19 15:30N 34°19' E 134°27'510.7
2018-Jul-19 15:00N 34°21' E 134°21'510.6
2018-Jul-19 14:30N 34°23' E 134°15'  
2018-Jul-17 09:32N 34°23' E 134°19'412.5
2018-Jul-17 09:12N 34°21' E 134°24'212.4
2018-Jul-17 09:01N 34°20' E 134°27'713.1
2018-Jul-17 08:30N 34°17' E 134°34'510.9
2018-Jul-17 08:00N 34°14' E 134°39'7 9.2
2018-Jul-17 07:14N 34°10' E 134°46'2 8.9
2018-Jul-17 07:00N 34°09' E 134°48'4 8.7
2018-Jul-17 06:31N 34°08' E 134°53'5 9.1
2018-Jul-17 06:01N 34°10' E 134°58'4 8.0
2018-Jul-17 05:31N 34°10' E 135°03'4 8.2
2018-Jul-17 05:01N 34°09' E 135°08'3 6.7
2018-Jul-17 04:30N 34°09' E 135°12'0 0.0
2018-Jul-17 04:01N 34°09' E 135°12'0 0.0
2018-Jul-17 03:29N 34°09' E 135°12'0 0.0
2018-Jul-17 03:00N 34°09' E 135°12'0 0.0
2018-Jul-17 02:30N 34°09' E 135°12'0 0.4
2018-Jul-17 02:00N 34°09' E 135°12'2 3.3
2018-Jul-17 01:30N 34°09' E 135°10'0 0.1
2018-Jul-17 01:00N 34°09' E 135°10'0 0.0
2018-Jul-17 00:30N 34°09' E 135°10'0 0.0
2018-Jul-16 23:30N 34°09' E 135°10'0 0.0
2018-Jul-16 23:00N 34°09' E 135°10'0 0.0
2018-Jul-16 22:30N 34°09' E 135°10'0 0.0
2018-Jul-16 22:00N 34°09' E 135°10'0 0.0
2018-Jul-16 21:21N 34°09' E 135°10'0 0.0
2018-Jul-16 21:00N 34°09' E 135°10'5 9.6
2018-Jul-16 20:30N 34°07' E 135°04'612.7
2018-Jul-16 20:00N 34°01' E 135°02'712.1
2018-Jul-16 19:25N 33°54' E 135°02'512.0
2018-Jul-16 19:00N 33°50' E 135°05'5 0.1
2018-Jul-15 04:02N 33°53' E 135°01'012.8
2018-Jul-15 04:00N 33°54' E 135°01'713.3
2018-Jul-15 03:30N 34°00' E 135°01'612.6
2018-Jul-15 03:00N 34°06' E 135°03'611.6
2018-Jul-15 02:30N 34°09' E 135°09'2 4.5
2018-Jul-15 02:00N 34°09' E 135°12'0 0.0
2018-Jul-15 01:30N 34°09' E 135°12'0 0.0
2018-Jul-15 01:00N 34°09' E 135°12'0 0.0
2018-Jul-15 00:30N 34°09' E 135°12'0 0.0
2018-Jul-15 00:00N 34°09' E 135°12'2 3.9
2018-Jul-14 23:30N 34°09' E 135°10'0 0.1
2018-Jul-14 22:57N 34°09' E 135°10'0 0.0
2018-Jul-14 22:30N 34°09' E 135°10'0 0.0
2018-Jul-14 22:00N 34°09' E 135°10'0 0.1
2018-Jul-14 21:30N 34°09' E 135°10'0 0.0
2018-Jul-14 21:00N 34°09' E 135°10'0 0.0
2018-Jul-14 20:30N 34°09' E 135°10'0 0.0
2018-Jul-14 20:00N 34°09' E 135°10'0 0.0
2018-Jul-14 19:30N 34°09' E 135°10'0 0.0
2018-Jul-14 19:00N 34°09' E 135°10'0 0.0
2018-Jul-14 18:30N 34°09' E 135°10'0 0.0
2018-Jul-14 18:00N 34°09' E 135°10'0 0.0
2018-Jul-14 17:30N 34°09' E 135°10'4 8.2
2018-Jul-14 17:00N 34°09' E 135°05'611.9
2018-Jul-14 16:30N 34°03' E 135°03'612.7
2018-Jul-14 16:00N 33°57' E 135°02'611.9
2018-Jul-14 15:29N 33°51' E 135°03'2 0.1
2018-Jul-13 04:12N 33°52' E 135°02'413.7
2018-Jul-13 03:55N 33°56' E 135°02'613.3
2018-Jul-13 03:30N 34°02' E 135°02'612.5
2018-Jul-13 03:00N 34°08' E 135°05'612.3
2018-Jul-13 02:30N 34°09' E 135°12'0 0.4
2018-Jul-13 02:00N 34°09' E 135°12'0 0.0
2018-Jul-13 01:31N 34°09' E 135°12'0 0.0
2018-Jul-13 01:00N 34°09' E 135°12'0 0.0
2018-Jul-13 00:30N 34°09' E 135°12'0 0.1
2018-Jul-13 00:00N 34°09' E 135°12'  

Dump ship's entire track history